Time;durP1;ratioP1;P1;durP2;ratioP2;P2;SDS_P1;SDS_P2;PMS_P1;PMS_P2;Temp;Humidity;BMP_temperature;BMP_pressure;BME280_temperature;BME280_humidity;BME280_pressure;Samples;Min_cycle;Max_cycle;Signal;HPM_P1;HPM_P2
2021/12/13 00:01:56;;;;;;;7.93;3.80;;;;;;;19.80;52.45;97662.91;10456612;28;20056;-19
2021/12/13 00:07:22;;;;;;;6.95;3.38;;;;;;;19.77;53.08;97650.19;10458433;28;20417;-20
2021/12/13 00:12:33;;;;;;;6.22;4.15;;;;;;;19.60;52.90;97619.50;10450382;28;20124;-19
2021/12/13 00:17:53;;;;;;;6.95;3.72;;;;;;;19.77;53.00;97643.38;10459885;28;20119;-20
2021/12/13 00:22:59;;;;;;;6.30;4.45;;;;;;;19.78;52.75;97644.25;10457275;28;20021;-19
2021/12/13 00:28:06;;;;;;;7.32;4.47;;;;;;;19.67;52.85;97620.44;10460878;28;20036;-19
2021/12/13 00:33:30;;;;;;;6.63;3.72;;;;;;;19.80;52.67;97640.03;10459359;28;20033;-20
2021/12/13 00:38:37;;;;;;;5.47;3.05;;;;;;;19.87;52.52;97641.78;10458737;28;20032;-19
2021/12/13 00:43:47;;;;;;;5.65;3.20;;;;;;;19.82;52.71;97636.66;10462330;28;20032;-19
2021/12/13 00:48:53;;;;;;;7.68;3.40;;;;;;;19.80;52.59;97642.56;10463667;28;20079;-19
2021/12/13 00:53:56;;;;;;;8.10;3.53;;;;;;;19.80;52.73;97655.28;10455256;28;20031;-20
2021/12/13 00:58:57;;;;;;;7.40;3.72;;;;;;;19.76;52.95;97648.47;10463093;28;20033;-19
2021/12/13 01:03:57;;;;;;;4.45;3.30;;;;;;;19.79;52.88;97658.66;10459858;28;20033;-20
2021/12/13 01:09:10;;;;;;;7.63;3.65;;;;;;;19.79;52.78;97653.56;10459470;28;20024;-20
2021/12/13 01:14:32;;;;;;;9.02;4.38;;;;;;;19.80;52.50;97640.03;10462053;28;20492;-19
2021/12/13 01:19:57;;;;;;;8.05;3.88;;;;;;;19.64;52.69;97612.75;10460699;28;20527;-19
2021/12/13 01:25:17;;;;;;;6.72;3.15;;;;;;;19.78;52.44;97626.47;10461261;28;20029;-19
2021/12/13 01:30:23;;;;;;;5.55;3.08;;;;;;;19.83;52.73;97627.38;10459316;28;20064;-19
2021/12/13 01:35:28;;;;;;;7.77;3.37;;;;;;;19.74;52.37;97612.88;10455057;28;20496;-19
2021/12/13 01:40:32;;;;;;;5.50;2.72;;;;;;;19.78;52.65;97621.38;10458434;28;20325;-19
2021/12/13 01:45:36;;;;;;;5.40;2.50;;;;;;;19.79;52.44;97620.53;10464926;28;20063;-20
2021/12/13 01:50:49;;;;;;;6.30;3.40;;;;;;;19.79;52.50;97607.84;10459957;28;20033;-19
2021/12/13 01:55:49;;;;;;;6.75;3.13;;;;;;;19.78;52.51;97614.63;10459467;28;20078;-19
2021/12/13 02:01:10;;;;;;;8.32;2.63;;;;;;;19.80;52.43;97609.53;10458084;28;20039;-20
2021/12/13 02:06:14;;;;;;;6.72;3.63;;;;;;;19.81;52.32;97604.47;10455890;28;20504;-19
2021/12/13 02:11:16;;;;;;;9.13;3.28;;;;;;;19.78;52.61;97595.97;10461382;28;20040;-19
2021/12/13 02:21:36;;;;;;;5.72;2.65;;;;;;;19.81;52.29;97578.19;10464361;28;20059;-19
2021/12/13 02:26:41;;;;;;;4.63;2.65;;;;;;;19.84;52.26;97594.31;10465493;28;20470;-20
2021/12/13 02:31:42;;;;;;;4.72;3.03;;;;;;;19.83;52.40;97596.88;10467664;28;20032;-19
2021/12/13 02:36:47;;;;;;;4.43;2.65;;;;;;;19.81;52.42;97611.22;10464500;28;20029;-19
2021/12/13 02:41:47;;;;;;;5.35;2.72;;;;;;;19.72;52.30;97606.06;10467339;28;20039;-20
2021/12/13 02:46:50;;;;;;;3.42;2.53;;;;;;;19.69;52.50;97606.06;10466775;28;20042;-19
2021/12/13 02:51:55;;;;;;;6.30;2.78;;;;;;;19.77;52.58;97614.59;10468530;28;20473;-19
2021/12/13 02:57:00;;;;;;;4.28;2.35;;;;;;;19.79;52.47;97615.47;10463657;28;20040;-19
2021/12/13 03:02:13;;;;;;;4.82;2.60;;;;;;;19.77;52.27;97610.34;10461158;28;20021;-19
2021/12/13 03:07:42;;;;;;;6.80;3.22;;;;;;;19.81;52.52;97616.31;10458213;28;20793;-19
2021/12/13 03:12:43;;;;;;;4.07;2.55;;;;;;;19.83;52.29;97615.50;10468411;28;20575;-19
2021/12/13 03:17:56;;;;;;;8.68;3.03;;;;;;;19.78;52.45;97611.22;10463380;28;20152;-20
2021/12/13 03:23:11;;;;;;;7.50;2.50;;;;;;;19.67;52.61;97613.66;10463007;28;20515;-20
2021/12/13 03:28:33;;;;;;;6.35;3.78;;;;;;;19.81;52.52;97629.88;10461499;28;20028;-19
2021/12/13 03:33:50;;;;;;;3.67;2.50;;;;;;;19.83;52.28;97635.00;10460755;28;20507;-20
2021/12/13 03:38:58;;;;;;;4.82;2.65;;;;;;;19.79;52.58;97653.56;10462928;28;20068;-19
2021/12/13 03:44:07;;;;;;;4.22;2.75;;;;;;;19.77;52.53;97645.94;10461180;28;20064;-19
2021/12/13 03:49:09;;;;;;;4.22;2.05;;;;;;;19.75;52.82;97642.53;10459430;28;20033;-20
2021/12/13 03:54:16;;;;;;;3.97;2.40;;;;;;;19.74;53.17;97639.97;10462387;28;20665;-19
2021/12/13 03:59:22;;;;;;;5.30;2.67;;;;;;;19.80;52.79;97642.56;10461373;28;20029;-19
2021/12/13 04:04:32;;;;;;;5.22;2.45;;;;;;;19.82;52.54;97643.44;10459964;28;20033;-19
2021/12/13 04:09:33;;;;;;;6.10;2.13;;;;;;;19.68;52.61;97633.13;10459263;28;20036;-20
2021/12/13 04:14:41;;;;;;;6.82;2.83;;;;;;;19.67;53.01;97640.75;10459092;28;20166;-19
2021/12/13 04:19:58;;;;;;;4.65;2.25;;;;;;;19.73;52.80;97643.34;10457626;28;20123;-19
2021/12/13 04:25:04;;;;;;;4.70;2.50;;;;;;;19.76;52.71;97636.59;10462473;28;20053;-19
2021/12/13 04:30:28;;;;;;;3.47;2.38;;;;;;;19.78;52.85;97636.63;10457909;28;20463;-20
2021/12/13 04:35:30;;;;;;;4.70;2.55;;;;;;;19.77;52.26;97634.94;10457292;28;20064;-19
2021/12/13 04:40:38;;;;;;;3.97;2.45;;;;;;;19.82;52.69;97638.34;10455142;28;20377;-19
2021/12/13 04:45:42;;;;;;;4.20;2.38;;;;;;;19.82;52.75;97640.88;10461121;28;20083;-20
2021/12/13 04:51:09;;;;;;;5.72;2.60;;;;;;;19.93;52.35;97641.84;10462950;28;20031;-19
2021/12/13 04:56:12;;;;;;;;;;;;;;;19.96;51.72;97629.16;10465067;28;20033;-19
2021/12/13 05:01:14;;;;;;;7.70;1.80;;;;;;;19.92;51.98;97635.06;10457208;28;19912;-19
2021/12/13 05:06:19;;;;;;;5.65;2.58;;;;;;;19.92;51.90;97617.28;10456682;28;20051;-19
2021/12/13 05:11:20;;;;;;;6.07;2.05;;;;;;;19.93;51.92;97613.91;10465551;28;20028;-19
2021/12/13 05:16:48;;;;;;;5.22;2.78;;;;;;;19.94;52.15;97618.13;10459113;28;20087;-19
2021/12/13 05:21:50;;;;;;;7.60;3.00;;;;;;;19.87;52.36;97626.53;10459018;28;20036;-19
2021/12/13 05:27:04;;;;;;;5.10;2.50;;;;;;;19.96;52.14;97627.50;10459509;28;20152;-20
2021/12/13 05:32:32;;;;;;;15.35;2.53;;;;;;;19.93;52.18;97632.53;10460164;28;20036;-19
2021/12/13 05:37:49;;;;;;;8.32;2.45;;;;;;;19.98;52.50;97632.56;10460844;28;20028;-20
2021/12/13 05:42:56;;;;;;;3.25;1.50;;;;;;;19.50;44.96;97629.59;10458998;28;20459;-20
2021/12/13 05:48:09;;;;;;;5.32;1.75;;;;;;;19.32;46.88;97606.50;10458800;28;20040;-20
2021/12/13 05:53:36;;;;;;;3.63;1.70;;;;;;;19.68;46.91;97647.53;10466625;28;20086;-20
2021/12/13 05:58:44;;;;;;;;;;;;;;;19.81;49.60;97651.91;10465450;28;20091;-20
2021/12/13 06:03:51;;;;;;;6.93;3.55;;;;;;;19.87;50.33;97641.78;10466932;28;19953;-20
2021/12/13 06:08:55;;;;;;;9.60;2.17;;;;;;;19.84;50.22;97641.78;10474515;28;20047;-20
2021/12/13 06:13:59;;;;;;;5.13;2.40;;;;;;;19.88;50.83;97639.28;10463196;28;20032;-20
2021/12/13 06:19:19;;;;;;;5.93;2.08;;;;;;;19.89;50.44;97647.75;10459226;28;20058;-20
2021/12/13 06:24:30;;;;;;;5.10;2.38;;;;;;;19.90;50.65;97642.69;10469649;28;20036;-19
2021/12/13 06:29:55;;;;;;;8.75;2.17;;;;;;;19.95;51.77;97640.16;10468441;28;20035;-25
2021/12/13 06:34:58;;;;;;;10.55;2.47;;;;;;;19.80;51.65;97619.69;10466328;28;20040;-19
2021/12/13 06:40:25;;;;;;;9.32;2.60;;;;;;;19.58;49.19;97644.06;10459020;28;20058;-20
2021/12/13 06:45:33;;;;;;;9.60;2.45;;;;;;;19.49;48.49;97650.75;10466889;28;20281;-20
2021/12/13 06:50:37;;;;;;;9.95;2.55;;;;;;;19.61;49.74;97644.06;10463057;28;20112;-20
2021/12/13 06:55:37;;;;;;;13.73;2.40;;;;;;;19.81;49.85;97659.50;10464369;28;20029;-20
2021/12/13 07:00:38;;;;;;;6.93;1.90;;;;;;;19.89;49.64;97656.22;10458886;28;20035;-19
2021/12/13 07:05:51;;;;;;;8.43;2.60;;;;;;;19.89;49.80;97658.75;10461998;28;20055;-20
2021/12/13 07:10:51;;;;;;;6.40;2.08;;;;;;;19.91;50.05;97668.97;10464761;28;20473;-20
2021/12/13 07:16:06;;;;;;;4.65;2.00;;;;;;;19.90;50.11;97660.47;10463632;28;20032;-19
2021/12/13 07:21:08;;;;;;;3.78;1.90;;;;;;;19.93;50.40;97663.03;10460515;28;20122;-20
2021/12/13 07:26:09;;;;;;;4.15;1.90;;;;;;;19.97;49.95;97669.84;10463263;28;20036;-19
2021/12/13 07:31:09;;;;;;;6.40;2.00;;;;;;;19.90;50.38;97683.34;10459225;28;20025;-20
2021/12/13 07:36:20;;;;;;;3.88;1.95;;;;;;;19.89;50.33;97690.94;10459223;28;20056;-19
2021/12/13 07:41:20;;;;;;;3.10;1.98;;;;;;;19.87;50.62;97702.78;10464722;28;20021;-20
2021/12/13 07:46:27;;;;;;;4.55;2.05;;;;;;;19.86;50.57;97708.72;10458828;28;20028;-19
2021/12/13 07:51:41;;;;;;;3.03;1.92;;;;;;;19.84;50.42;97712.94;10459691;28;20029;-20
2021/12/13 07:56:56;;;;;;;2.67;1.90;;;;;;;19.84;50.39;97718.03;10461709;28;20420;-19
2021/12/13 08:02:18;;;;;;;5.60;1.95;;;;;;;19.87;50.38;97718.03;10464299;28;20114;-20
2021/12/13 08:07:20;;;;;;;4.55;2.00;;;;;;;19.83;50.33;97717.16;10461022;28;20459;-20
2021/12/13 08:12:37;;;;;;;2.95;1.88;;;;;;;19.91;50.51;97714.72;10466981;28;20037;-19
2021/12/13 08:18:02;;;;;;;4.88;1.50;;;;;;;19.90;50.55;97707.88;10458622;28;20056;-20
2021/12/13 08:23:04;;;;;;;3.28;1.88;;;;;;;19.82;50.28;97699.34;10458868;28;20431;-20
2021/12/13 08:28:09;;;;;;;3.75;2.00;;;;;;;19.89;50.40;97716.34;10461821;28;20120;-20
2021/12/13 08:33:14;;;;;;;2.50;1.58;;;;;;;19.87;50.61;97718.03;10460456;28;20024;-20
2021/12/13 08:38:39;;;;;;;2.03;1.27;;;;;;;19.88;50.49;97722.28;10461698;28;20043;-20
2021/12/13 08:43:58;;;;;;;3.55;1.60;;;;;;;19.89;50.29;97727.38;10461754;28;20504;-20
2021/12/13 08:49:00;;;;;;;2.22;1.67;;;;;;;19.87;50.42;97733.28;10458140;28;20275;-20
2021/12/13 08:54:06;;;;;;;3.40;1.23;;;;;;;19.67;50.68;97697.50;10459727;28;20029;-20
2021/12/13 08:59:16;;;;;;;2.22;1.73;;;;;;;19.88;50.48;97714.66;10454059;28;20063;-20
2021/12/13 09:04:31;;;;;;;2.13;1.45;;;;;;;19.92;50.63;97716.41;10454741;28;20117;-20
2021/12/13 09:09:33;;;;;;;2.33;1.60;;;;;;;19.86;50.54;97717.16;10457392;28;20033;-20
2021/12/13 09:14:36;;;;;;;2.55;1.50;;;;;;;19.86;50.43;97714.63;10461053;28;20298;-20
2021/12/13 09:19:51;;;;;;;1.60;1.30;;;;;;;19.86;50.64;97722.25;10457875;28;20520;-20
2021/12/13 09:25:16;;;;;;;2.03;1.52;;;;;;;19.87;50.62;97718.03;10459826;28;20524;-20
2021/12/13 09:30:29;;;;;;;2.55;1.27;;;;;;;19.87;50.61;97723.13;10462800;28;20124;-21
2021/12/13 09:35:48;;;;;;;2.33;1.50;;;;;;;19.84;50.62;97720.56;10454624;28;20391;-19
2021/12/13 09:41:11;;;;;;;2.70;1.40;;;;;;;19.86;50.75;97714.63;10459760;28;20035;-19
2021/12/13 09:46:15;;;;;;;2.25;1.92;;;;;;;19.84;50.37;97705.31;10459710;28;20033;-20
2021/12/13 09:51:44;;;;;;;3.25;1.63;;;;;;;19.85;50.51;97699.38;10459914;28;20035;-20
2021/12/13 09:56:49;;;;;;;2.00;1.50;;;;;;;19.81;50.60;97690.00;10453048;28;20122;-20
2021/12/13 10:01:52;;;;;;;1.98;1.30;;;;;;;19.88;50.87;97689.25;10454791;28;20033;-20
2021/12/13 10:06:57;;;;;;;3.58;1.42;;;;;;;19.86;50.84;97690.91;10455955;28;20549;-20
2021/12/13 10:12:24;;;;;;;3.33;1.50;;;;;;;19.80;50.78;97667.97;10465365;28;20071;-20
2021/12/13 10:17:29;;;;;;;2.70;1.40;;;;;;;19.85;50.68;97679.88;10456627;28;20067;-21
2021/12/13 10:22:31;;;;;;;1.40;1.10;;;;;;;19.86;50.78;97675.69;10457541;28;20048;-20
2021/12/13 10:27:32;;;;;;;2.10;1.33;;;;;;;19.85;50.71;97673.97;10455950;28;20056;-20
2021/12/13 10:32:36;;;;;;;2.72;1.10;;;;;;;19.83;50.89;97660.41;10455470;28;20040;-20
2021/12/13 10:37:41;;;;;;;1.55;1.25;;;;;;;19.75;50.46;97651.84;10466412;28;20040;-20
2021/12/13 10:42:56;;;;;;;2.22;1.10;;;;;;;19.80;50.71;97647.66;10465059;28;20075;-20
2021/12/13 10:48:04;;;;;;;1.20;1.00;;;;;;;19.89;50.56;97650.28;10461699;28;20546;-20
2021/12/13 10:53:10;;;;;;;1.13;1.00;;;;;;;19.93;50.67;97669.81;10464233;28;20036;-20
2021/12/13 10:58:19;;;;;;;2.75;1.23;;;;;;;19.94;50.68;97666.44;10470363;28;20037;-19
2021/12/13 11:03:23;;;;;;;1.33;1.23;;;;;;;19.93;50.84;97657.09;10463435;28;20031;-19
2021/12/13 11:08:26;;;;;;;2.40;1.40;;;;;;;19.91;50.54;97653.72;10463007;28;20033;-19
2021/12/13 11:13:31;;;;;;;1.73;1.27;;;;;;;19.80;51.01;97650.19;10466742;28;20523;-22
2021/12/13 11:18:32;;;;;;;1.95;1.30;;;;;;;19.84;50.04;97667.19;10459674;28;20032;-20
2021/12/13 11:23:33;;;;;;;1.80;1.10;;;;;;;19.93;51.04;97662.19;10462779;28;20064;-19
2021/12/13 11:28:35;;;;;;;1.45;1.23;;;;;;;19.94;51.53;97654.56;10462088;28;20560;-19
2021/12/13 11:33:40;;;;;;;2.17;1.73;;;;;;;20.07;51.56;97650.47;10463584;28;20032;-20
2021/12/13 11:39:09;;;;;;;5.63;2.03;;;;;;;20.08;51.93;97639.50;10465305;28;20063;-20
2021/12/13 11:44:57;;;;;;;5.90;2.00;;;;;;;20.06;52.82;97634.38;10463657;28;20032;-21
2021/12/13 11:50:35;;;;;;;3.58;1.98;;;;;;;20.04;52.78;97628.44;10433733;28;20052;-19
2021/12/13 11:55:47;;;;;;;4.10;1.70;;;;;;;20.04;52.92;97625.00;10441189;28;20045;-20
2021/12/13 12:01:21;;;;;;;3.80;1.60;;;;;;;20.06;53.06;97618.25;10463712;28;20411;-19
2021/12/13 12:06:49;;;;;;;3.85;2.15;;;;;;;20.06;53.13;97618.25;10462383;28;20619;-22
2021/12/13 12:12:16;;;;;;;3.47;1.80;;;;;;;20.04;53.43;97608.09;10465071;28;20024;-20
2021/12/13 12:17:18;;;;;;;;;;;;;;;20.02;53.41;97608.88;10464256;28;20033;-20
2021/12/13 12:22:21;;;;;;;2.60;1.42;;;;;;;20.00;52.78;97608.03;10459910;28;19917;-19
2021/12/13 12:27:28;;;;;;;2.15;1.70;;;;;;;19.95;54.06;97579.16;10459590;28;20033;-22
2021/12/13 12:32:33;;;;;;;2.45;1.40;;;;;;;19.95;53.58;97574.09;10462068;28;20028;-19
2021/12/13 12:37:59;;;;;;;6.63;1.48;;;;;;;19.96;52.66;97596.13;10456170;28;20239;-19
2021/12/13 12:43:07;;;;;;;3.65;2.00;;;;;;;19.96;53.61;97591.03;10459264;28;20044;-20
2021/12/13 12:48:13;;;;;;;4.47;2.10;;;;;;;19.86;53.61;97579.09;10455529;28;20025;-21
2021/12/13 12:53:23;;;;;;;4.90;1.80;;;;;;;19.95;53.24;97589.34;10461117;28;20448;-22
2021/12/13 12:58:29;;;;;;;3.05;1.60;;;;;;;19.83;53.80;97563.84;10455727;28;20570;-19
2021/12/13 13:03:35;;;;;;;7.15;1.92;;;;;;;19.93;53.78;97568.97;10461184;28;20060;-22
2021/12/13 13:08:39;;;;;;;13.73;3.17;;;;;;;19.86;52.44;97561.31;10457135;28;20898;-21
2021/12/13 13:13:41;;;;;;;8.43;2.20;;;;;;;19.97;54.04;97569.84;10456120;28;20123;-22
2021/12/13 13:18:41;;;;;;;5.30;2.40;;;;;;;19.97;54.07;97563.09;10458231;28;20040;-20
2021/12/13 13:23:53;;;;;;;5.13;2.03;;;;;;;20.01;53.58;97563.97;10459515;28;20029;-22
2021/12/13 13:28:58;;;;;;;4.07;1.70;;;;;;;19.98;53.79;97554.63;10459291;28;20286;-20
2021/12/13 13:34:11;;;;;;;7.78;2.22;;;;;;;19.96;54.69;97550.38;10459741;28;20412;-20
2021/12/13 13:39:16;;;;;;;5.78;1.98;;;;;;;19.98;53.97;97539.38;10461106;28;20043;-19
2021/12/13 13:44:20;;;;;;;5.03;1.20;;;;;;;19.97;54.13;97532.59;10459787;28;20025;-19
2021/12/13 13:49:22;;;;;;;3.45;1.60;;;;;;;20.00;53.56;97536.84;10456221;28;20444;-20
2021/12/13 13:54:28;;;;;;;3.58;1.45;;;;;;;19.99;53.86;97545.28;10451675;28;20029;-20
2021/12/13 13:59:29;;;;;;;4.15;2.17;;;;;;;20.02;53.65;97560.59;10457795;28;20516;-20
2021/12/13 14:04:38;;;;;;;3.85;1.45;;;;;;;20.06;54.00;97568.28;10459917;28;20033;-19
2021/12/13 14:09:41;;;;;;;3.55;1.60;;;;;;;20.00;53.95;97560.56;10464105;28;20112;-20
2021/12/13 14:14:45;;;;;;;2.33;1.33;;;;;;;20.00;54.61;97568.19;10461638;28;20033;-19
2021/12/13 14:19:51;;;;;;;3.33;1.30;;;;;;;19.97;54.68;97574.94;10466660;28;20124;-19
2021/12/13 14:24:51;;;;;;;2.67;1.37;;;;;;;19.97;54.26;97574.94;10467498;28;20496;-20
2021/12/13 14:30:16;;;;;;;4.27;1.10;;;;;;;19.96;54.31;97579.19;10469787;28;20028;-19
2021/12/13 14:35:26;;;;;;;1.55;1.20;;;;;;;19.94;55.07;97597.81;10464964;28;20295;-19
2021/12/13 14:40:26;;;;;;;3.03;1.45;;;;;;;19.90;54.56;97590.97;10458820;28;20032;-20
2021/12/13 14:45:27;;;;;;;2.17;1.50;;;;;;;19.82;53.54;97582.44;10464289;28;20029;-19
2021/12/13 14:50:31;;;;;;;2.15;1.42;;;;;;;19.96;53.96;97588.50;10467969;28;20041;-20
2021/12/13 14:55:41;;;;;;;3.30;1.63;;;;;;;19.97;54.91;97597.81;10462724;28;20438;-20
2021/12/13 15:00:50;;;;;;;2.67;1.50;;;;;;;19.87;54.13;97580.81;10462331;28;20047;-20
2021/12/13 15:05:58;;;;;;;1.70;1.13;;;;;;;19.93;54.82;97586.78;10462187;28;20492;-20
2021/12/13 15:11:08;;;;;;;1.77;1.30;;;;;;;19.94;54.35;97600.34;10463318;28;20032;-20
2021/12/13 15:16:12;;;;;;;1.20;0.95;;;;;;;19.94;54.37;97592.72;10464397;28;20040;-20
2021/12/13 15:21:19;;;;;;;1.90;1.33;;;;;;;19.89;54.33;97584.19;10460767;28;20021;-20
2021/12/13 15:26:28;;;;;;;3.70;1.10;;;;;;;19.93;54.39;97606.28;10464070;28;20033;-19
2021/12/13 15:31:34;;;;;;;1.52;1.00;;;;;;;19.92;54.64;97609.66;10462539;28;20076;-20
2021/12/13 15:36:35;;;;;;;1.75;1.42;;;;;;;19.77;54.61;97592.56;10462047;28;20090;-20
2021/12/13 15:41:37;;;;;;;2.20;1.38;;;;;;;19.94;54.19;97624.06;10462357;28;20029;-19
2021/12/13 15:46:43;;;;;;;1.85;1.45;;;;;;;19.98;54.15;97624.94;10461407;28;20086;-19
2021/12/13 15:51:50;;;;;;;1.27;1.10;;;;;;;19.94;54.15;97641.84;10463282;28;20029;-19
2021/12/13 15:56:55;;;;;;;2.30;1.10;;;;;;;19.97;53.90;97651.19;10463027;28;20512;-20
2021/12/13 16:01:59;;;;;;;1.65;1.38;;;;;;;19.96;53.83;97664.75;10457809;28;20064;-19
2021/12/13 16:07:04;;;;;;;1.45;1.30;;;;;;;19.94;53.98;97659.63;10459274;28;20546;-20
2021/12/13 16:12:13;;;;;;;1.38;1.00;;;;;;;19.94;54.21;97669.81;10465967;28;20036;-19
2021/12/13 16:17:31;;;;;;;1.45;1.08;;;;;;;19.94;53.84;97659.63;10462245;28;20118;-19
2021/12/13 16:22:40;;;;;;;1.17;1.08;;;;;;;19.95;53.61;97660.50;10459745;28;20041;-20
2021/12/13 16:28:05;;;;;;;1.95;1.30;;;;;;;19.86;53.46;97632.47;10459835;28;20033;-20
2021/12/13 16:33:08;;;;;;;1.60;1.17;;;;;;;19.94;53.98;97644.38;10463760;28;20029;-20
2021/12/13 16:38:09;;;;;;;2.25;1.20;;;;;;;19.98;53.60;97635.09;10457749;28;20403;-19
2021/12/13 16:43:14;;;;;;;2.17;1.00;;;;;;;19.96;53.86;97646.97;10463449;28;20035;-19
2021/12/13 16:48:22;;;;;;;1.92;1.48;;;;;;;19.85;53.76;97626.53;10459301;28;20060;-21
2021/12/13 16:53:23;;;;;;;1.27;1.15;;;;;;;19.99;53.64;97647.84;10454286;28;20451;-19
2021/12/13 16:58:24;;;;;;;2.28;1.35;;;;;;;19.84;53.75;97616.38;10455452;28;20098;-19
2021/12/13 17:03:29;;;;;;;1.35;0.90;;;;;;;19.98;54.03;97645.28;10462870;28;20051;-19
2021/12/13 17:08:41;;;;;;;1.08;0.90;;;;;;;19.98;53.97;97647.81;10464332;28;20094;-19
2021/12/13 17:13:43;;;;;;;1.27;0.93;;;;;;;19.99;53.30;97644.44;10464381;28;20041;-19
2021/12/13 17:18:56;;;;;;;1.10;1.00;;;;;;;19.97;53.35;97641.91;10456427;28;20127;-20
2021/12/13 17:24:05;;;;;;;1.38;1.10;;;;;;;19.95;53.22;97619.84;10467731;28;20029;-20
2021/12/13 17:29:24;;;;;;;1.25;1.05;;;;;;;20.04;53.11;97635.16;10458621;28;20576;-19
2021/12/13 17:34:34;;;;;;;1.90;1.13;;;;;;;19.97;53.75;97633.41;10469188;28;20059;-20
2021/12/13 17:39:36;;;;;;;1.85;0.90;;;;;;;19.95;53.47;97640.16;10467425;28;20093;-20
2021/12/13 17:44:37;;;;;;;1.52;1.20;;;;;;;19.74;53.62;97612.88;10464677;28;20048;-20
2021/12/13 17:49:37;;;;;;;1.20;1.10;;;;;;;19.96;53.05;97646.97;10465171;28;20139;-23
2021/12/13 17:54:48;;;;;;;0.80;0.80;;;;;;;19.96;52.94;97642.75;10472611;28;20051;-21
2021/12/13 17:59:49;;;;;;;3.80;1.10;;;;;;;19.97;53.06;97653.75;10464104;28;20036;-22
2021/12/13 18:04:55;;;;;;;1.40;1.00;;;;;;;19.90;52.91;97641.81;10461372;28;20024;-22
2021/12/13 18:09:57;;;;;;;1.48;1.20;;;;;;;19.86;52.31;97635.84;10464003;28;20041;-22
2021/12/13 18:14:58;;;;;;;1.70;0.80;;;;;;;20.06;52.88;97664.88;10463679;28;20526;-20
2021/12/13 18:20:24;;;;;;;1.67;1.00;;;;;;;20.04;52.50;97665.66;10467444;28;20120;-22
2021/12/13 18:25:25;;;;;;;1.10;0.90;;;;;;;20.01;52.41;97671.56;10463434;28;20512;-23
2021/12/13 18:30:30;;;;;;;1.17;0.80;;;;;;;20.02;52.24;97662.28;10452388;28;20052;-21
2021/12/13 18:35:45;;;;;;;1.30;1.00;;;;;;;20.00;52.57;97669.88;10458356;28;20109;-22
2021/12/13 18:40:51;;;;;;;1.08;0.80;;;;;;;19.97;52.59;97674.06;10445718;28;20039;-21
2021/12/13 18:45:54;;;;;;;2.47;0.90;;;;;;;19.99;52.16;97667.31;10470667;28;20112;-21
2021/12/13 18:50:59;;;;;;;1.80;1.30;;;;;;;19.98;52.40;97683.41;10464769;28;20052;-21
2021/12/13 18:56:17;;;;;;;2.83;1.00;;;;;;;20.03;51.59;97681.75;10462141;28;20090;-21
2021/12/13 19:01:22;;;;;;;4.47;1.25;;;;;;;20.07;52.06;97693.69;10453905;28;20039;-21
2021/12/13 19:06:35;;;;;;;2.80;1.27;;;;;;;20.06;52.34;97694.53;10453290;28;20040;-21
2021/12/13 19:11:44;;;;;;;1.70;1.35;;;;;;;19.96;51.54;97690.16;10448898;28;20028;-21
2021/12/13 19:17:01;;;;;;;7.57;4.15;;;;;;;19.30;44.22;97702.13;10449978;28;20076;-22
2021/12/13 19:22:04;;;;;;;;;;;;;;;19.15;47.32;97714.59;10455142;28;20112;-22
2021/12/13 19:52:42;;;;;;;5.90;2.00;;;;;;;20.14;51.27;97715.78;10350540;28;20022;-23
2021/12/13 19:57:53;;;;;;;5.90;1.90;;;;;;;20.09;51.62;97723.38;10369799;28;20034;-23
2021/12/13 20:03:13;;;;;;;5.88;1.90;;;;;;;20.05;51.15;97720.78;10367304;28;20029;-24
2021/12/13 20:08:16;;;;;;;2.85;1.58;;;;;;;20.06;51.40;97717.41;10355304;28;20471;-23
2021/12/13 20:13:39;;;;;;;8.23;3.80;;;;;;;20.01;51.45;97701.25;10368293;28;20036;-23
2021/12/13 20:18:51;;;;;;;4.80;1.50;;;;;;;20.12;51.03;97717.47;10361415;28;20378;-22
2021/12/13 20:24:03;;;;;;;3.47;1.67;;;;;;;20.13;51.34;97701.38;10367168;28;20061;-23
2021/12/13 20:29:17;;;;;;;5.18;2.15;;;;;;;20.16;51.86;97698.84;10362231;28;20037;-23
2021/12/13 20:34:28;;;;;;;4.30;1.75;;;;;;;20.11;51.65;97692.91;10364099;28;20113;-22
2021/12/13 20:39:36;;;;;;;10.38;2.30;;;;;;;20.11;53.11;97688.63;10365333;28;20080;-23
2021/12/13 20:44:43;;;;;;;7.60;2.40;;;;;;;20.10;52.32;97692.03;10356880;28;20030;-23
2021/12/13 20:49:47;;;;;;;4.45;1.77;;;;;;;20.07;52.00;97675.88;10369045;28;20037;-23
2021/12/13 20:55:04;;;;;;;4.90;1.85;;;;;;;20.02;51.88;97662.28;10369441;28;20037;-23
2021/12/13 21:00:28;;;;;;;5.10;1.30;;;;;;;20.01;51.87;97661.41;10363601;28;20013;-23
2021/12/13 21:05:41;;;;;;;5.68;1.98;;;;;;;20.05;52.42;97664.88;10367392;28;20033;-23
2021/12/13 21:10:58;;;;;;;5.47;2.03;;;;;;;20.07;51.69;97650.47;10365448;28;20046;-23
2021/12/13 21:16:09;;;;;;;2.85;1.73;;;;;;;20.05;52.56;97657.25;10364812;28;20025;-23
2021/12/13 21:21:15;;;;;;;5.65;1.75;;;;;;;20.08;51.67;97654.75;10363502;28;20030;-25
2021/12/13 21:26:16;;;;;;;7.50;2.63;;;;;;;20.09;51.67;97643.72;10364781;28;20482;-23
2021/12/13 21:31:45;;;;;;;4.32;1.55;;;;;;;20.05;52.03;97631.81;10363663;28;20509;-22
2021/12/13 21:42:30;;;;;;;8.32;1.80;;;;;;;20.08;52.67;97626.78;10362168;28;20113;-22
2021/12/13 21:47:38;;;;;;;5.03;1.95;;;;;;;20.04;52.57;97627.53;10360187;28;20064;-22
2021/12/13 21:52:44;;;;;;;2.92;1.27;;;;;;;19.97;52.81;97624.09;10355362;28;20038;-22
2021/12/13 21:57:52;;;;;;;3.40;1.65;;;;;;;19.94;52.91;97629.13;10359379;28;20088;-22
2021/12/13 22:02:54;;;;;;;5.38;2.05;;;;;;;19.95;52.48;97625.78;10364601;28;20030;-22
2021/12/13 22:08:03;;;;;;;5.72;2.33;;;;;;;19.95;52.78;97624.91;10362383;28;20447;-23
2021/12/13 22:13:21;;;;;;;5.53;1.55;;;;;;;19.94;52.54;97621.50;10353268;28;20433;-22
2021/12/13 22:18:24;;;;;;;5.35;1.58;;;;;;;19.96;52.73;97614.78;10358676;28;20064;-23
2021/12/13 22:23:32;;;;;;;5.13;1.55;;;;;;;19.99;52.44;97617.34;10361892;28;20418;-22
2021/12/13 22:28:36;;;;;;;6.15;1.83;;;;;;;20.01;52.34;97620.72;10363106;28;20065;-22
2021/12/13 22:33:38;;;;;;;2.85;1.30;;;;;;;19.99;52.25;97622.41;10368894;28;20034;-22
2021/12/13 22:38:43;;;;;;;5.25;1.40;;;;;;;19.98;52.27;97620.72;10370898;28;20038;-22
2021/12/13 22:43:56;;;;;;;3.15;1.08;;;;;;;19.98;52.77;97627.47;10370485;28;20087;-22
2021/12/13 22:49:03;;;;;;;5.53;2.58;;;;;;;19.95;52.61;97630.00;10373241;28;20053;-22
2021/12/13 22:54:05;;;;;;;2.60;1.23;;;;;;;19.95;51.90;97628.34;10360271;28;20042;-22
2021/12/13 22:59:15;;;;;;;5.32;1.60;;;;;;;19.96;52.79;97629.16;10375808;28;20079;-22
2021/12/13 23:04:21;;;;;;;7.75;1.77;;;;;;;19.96;52.86;97624.94;10363046;28;20117;-22
2021/12/13 23:09:30;;;;;;;4.75;1.40;;;;;;;20.00;52.57;97619.03;10369869;28;20025;-22
2021/12/13 23:14:31;;;;;;;3.58;1.45;;;;;;;19.98;52.82;97614.78;10368690;28;20038;-22
2021/12/13 23:19:31;;;;;;;3.45;1.23;;;;;;;19.97;52.52;97618.16;10367865;28;20044;-22
2021/12/13 23:24:33;;;;;;;3.97;1.50;;;;;;;19.97;52.69;97618.16;10368747;28;20045;-22
2021/12/13 23:29:41;;;;;;;2.90;1.50;;;;;;;19.95;52.80;97612.22;10370057;28;20040;-22
2021/12/13 23:34:42;;;;;;;3.22;1.40;;;;;;;19.94;53.01;97605.44;10368650;28;20042;-22
2021/12/13 23:50:39;;;;;;;3.25;1.30;;;;;;;19.92;52.17;97602.03;10365435;28;20826;-22
2021/12/13 23:56:01;;;;;;;2.95;1.20;;;;;;;19.97;52.50;97607.97;10366372;28;20057;-22
